Airfield :
LOGIN :

Register | Disclaimer

   EN    FR    IT 

 










Legend :    VFR   Marginal VFR   IFR   Intensive IFR   Very Intensive IFR
Visi :
Ceiling :
>= 8 km
>= 3000ft
5 to 8 km
1000 to 3000 ft
1500m to 5 km
500 to 1000 ft
800 to 1500m
200 to 500 ft
< 800m
< 200 ft
Symbols :   Thunderstorms  Fog  Heavy snow  Heavy precipitations  Wind > 20 kt
SIGMETs :     Misc.  Thunderstorms  Icing  Turbulence  Mountain Waves  Volcanic Ashes






- Airport Elevation : 313 ft
- IATA code : LEH


LFOH - Le Havre Octeville

CURRENT METAR :
  • 162130Z AUTO 10003KT 6000 OVC040 05/05 Q1009

EXPIRED METARs :
  • 162100Z AUTO 12003KT 6000 OVC039 05/05 Q1008
  • 162030Z AUTO 12004KT 6000 BKN038 OVC200 05/04 Q1008
  • 162000Z AUTO 12005KT 7000 SCT038 BKN200 05/05 Q1008
  • 161930Z AUTO 13004KT 9999 OVC038 06/05 Q1008
  • 161900Z AUTO 13005KT 9999 OVC039 06/05 Q1007 BECMG 2000 BR OVC002

TAF TAF LFOH
Valid from the 16 at 12:00 until the 17 at 12:00 UTC


161100Z 1612/1712 11008KT 9999 BKN007 OVC015
BECMG 1614/1616 SCT012 OVC030
BECMG 1620/1624 2000 BR OVC002
PROB40 1700/1709 0200 FG VV///
BECMG 1710/1712 8000 NSW BKN005
ATIS : +33 2 35 54 64 93



MET'MAP, your aeronautical weather chart ! - Copyright ORBIFLY December 2007 - Disclaimer

ORBIFLY MET'MAP TEAM :

Programming & Development : Alexandra Zaïnal
Concept & Development : Baudouin d'Aumeries
Co-Development & Prog : Marc-Olivier Méhu
Technical & hardware support : Manuel Goepfert

Contact : metmap@orbifly.com




SOURCES & CREDITS :

   NOAA